createdAt,value
2023-03-10T00:00:09.574Z,94.90
2023-03-10T00:02:58.137Z,95.70
2023-03-10T00:05:47.303Z,94.09
2023-03-10T00:08:35.926Z,94.38
2023-03-10T00:11:24.672Z,94.55
2023-03-10T00:14:14.874Z,94.65
2023-03-10T00:17:03.885Z,96.09
2023-03-10T00:19:52.320Z,98.16
2023-03-10T00:22:41.778Z,99.38
2023-03-10T00:25:30.578Z,97.78
2023-03-10T00:28:19.130Z,98.40
2023-03-10T00:31:10.287Z,100.00
2023-03-10T00:33:58.934Z,98.03
2023-03-10T00:36:47.460Z,97.53
2023-03-10T00:39:36.005Z,99.59
2023-03-10T00:42:24.530Z,99.20
2023-03-10T00:45:13.121Z,100.00
2023-03-10T00:48:02.972Z,100.00
2023-03-10T00:50:51.705Z,100.00
2023-03-10T00:53:41.367Z,100.00
2023-03-10T00:56:30.468Z,100.00
2023-03-10T00:59:19.029Z,100.00
2023-03-10T01:02:07.544Z,100.00
2023-03-10T01:04:57.430Z,100.00
2023-03-10T01:07:46.056Z,100.00
2023-03-10T01:10:34.518Z,100.00
2023-03-10T01:13:23.171Z,100.00
2023-03-10T01:16:11.883Z,100.00
2023-03-10T01:19:00.655Z,100.00
2023-03-10T01:21:50.504Z,100.00
2023-03-10T01:24:39.009Z,100.00
2023-03-10T01:27:27.527Z,100.00
2023-03-10T01:30:16.412Z,100.00
2023-03-10T01:33:05.140Z,100.00
2023-03-10T01:35:53.638Z,100.00
2023-03-10T01:38:44.505Z,100.00
2023-03-10T01:41:32.959Z,100.00
2023-03-10T01:44:22.419Z,100.00
2023-03-10T01:47:11.540Z,100.00
2023-03-10T01:50:00.200Z,100.00
2023-03-10T01:52:56.437Z,100.00
2023-03-10T01:55:49.740Z,100.00
2023-03-10T01:58:40.474Z,100.00
2023-03-10T02:01:29.177Z,100.00
2023-03-10T02:04:20.323Z,100.00
2023-03-10T02:07:09.099Z,100.00
2023-03-10T02:09:57.846Z,100.00
2023-03-10T02:12:47.874Z,100.00
2023-03-10T02:15:36.418Z,100.00
2023-03-10T02:18:25.361Z,100.00
2023-03-10T02:21:21.746Z,100.00
2023-03-10T02:24:15.988Z,100.00
2023-03-10T02:27:11.593Z,100.00
2023-03-10T02:30:02.407Z,100.00
2023-03-10T02:32:55.095Z,100.00
2023-03-10T02:35:43.641Z,100.00
2023-03-10T02:38:32.154Z,100.00
2023-03-10T02:41:22.452Z,100.00
2023-03-10T02:44:15.342Z,100.00
2023-03-10T02:47:04.048Z,100.00
2023-03-10T02:49:52.530Z,100.00
2023-03-10T02:52:44.729Z,100.00
2023-03-10T02:55:33.368Z,100.00
2023-03-10T02:58:22.660Z,100.00
2023-03-10T03:01:12.795Z,100.00
2023-03-10T03:04:01.906Z,100.00
2023-03-10T03:06:51.127Z,100.00
2023-03-10T03:09:39.656Z,100.00
2023-03-10T03:12:28.128Z,100.00
2023-03-10T03:15:16.752Z,100.00
2023-03-10T03:18:06.988Z,100.00
2023-03-10T03:20:55.489Z,100.00
2023-03-10T03:23:45.113Z,100.00
2023-03-10T03:26:33.591Z,100.00
2023-03-10T03:29:22.081Z,100.00
2023-03-10T03:32:10.696Z,100.00
2023-03-10T03:35:00.893Z,100.00
2023-03-10T03:37:49.340Z,100.00
2023-03-10T03:40:38.234Z,100.00
2023-03-10T03:43:27.638Z,100.00
2023-03-10T03:46:16.222Z,100.00
2023-03-10T03:49:04.894Z,100.00
2023-03-10T03:51:54.818Z,100.00
2023-03-10T03:54:43.321Z,100.00
2023-03-10T03:57:31.930Z,100.00
2023-03-10T04:00:22.711Z,100.00
2023-03-10T04:03:11.289Z,100.00
2023-03-10T04:05:59.799Z,100.00
2023-03-10T04:08:51.521Z,99.98
2023-03-10T04:11:40.028Z,99.38
2023-03-10T04:14:28.513Z,100.00
2023-03-10T04:17:16.980Z,100.00
2023-03-10T04:20:08.707Z,100.00
2023-03-10T04:22:57.264Z,100.00
2023-03-10T04:25:47.073Z,99.94
2023-03-10T04:28:35.552Z,100.00
2023-03-10T04:31:24.250Z,100.00
2023-03-10T04:34:12.720Z,99.72
2023-03-10T04:37:01.212Z,99.15
2023-03-10T04:39:49.732Z,99.31
2023-03-10T04:42:39.557Z,99.78
2023-03-10T04:45:28.166Z,99.28
2023-03-10T04:48:16.905Z,99.76
2023-03-10T04:51:08.048Z,98.21
2023-03-10T04:53:57.240Z,98.72
2023-03-10T04:56:45.771Z,98.42
2023-03-10T04:59:35.790Z,98.73
2023-03-10T05:02:24.348Z,99.65
2023-03-10T05:05:13.105Z,99.85
2023-03-10T05:08:01.620Z,100.00
2023-03-10T05:10:50.095Z,100.00
2023-03-10T05:13:38.850Z,99.44
2023-03-10T05:16:28.812Z,100.00
2023-03-10T05:19:17.463Z,100.00
2023-03-10T05:22:07.324Z,100.00
2023-03-10T05:24:55.807Z,99.36
2023-03-10T05:27:44.317Z,99.83
2023-03-10T05:30:32.746Z,98.37
2023-03-10T05:33:22.545Z,97.88
2023-03-10T05:36:12.815Z,95.73
2023-03-10T05:39:02.144Z,93.90
2023-03-10T05:41:50.675Z,93.02
2023-03-10T05:44:39.418Z,92.92
2023-03-10T05:47:27.928Z,91.34
2023-03-10T05:50:18.911Z,89.18
2023-03-10T05:53:07.335Z,86.61
2023-03-10T05:55:57.876Z,85.58
2023-03-10T05:58:47.114Z,86.86
2023-03-10T06:01:35.613Z,85.01
2023-03-10T06:04:24.444Z,85.65
2023-03-10T06:07:14.345Z,84.50
2023-03-10T06:10:03.148Z,84.12
2023-03-10T06:12:51.636Z,84.17
2023-03-10T06:15:40.087Z,83.53
2023-03-10T06:18:29.322Z,84.55
2023-03-10T06:21:18.463Z,85.33
2023-03-10T06:24:08.440Z,85.24
2023-03-10T06:26:57.018Z,85.40
2023-03-10T06:29:46.968Z,86.14
2023-03-10T06:32:36.093Z,87.43
2023-03-10T06:35:27.352Z,87.82
2023-03-10T06:38:15.904Z,87.96
2023-03-10T06:41:06.358Z,87.69
2023-03-10T06:43:55.084Z,86.45
2023-03-10T06:46:43.637Z,86.37
2023-03-10T06:49:32.520Z,86.26
2023-03-10T06:52:21.041Z,84.12
2023-03-10T06:55:10.910Z,84.19
2023-03-10T06:58:00.756Z,85.32
2023-03-10T07:00:49.217Z,83.21
2023-03-10T07:03:43.693Z,81.43
2023-03-10T07:06:32.693Z,80.44
2023-03-10T07:09:21.304Z,76.54
2023-03-10T07:12:10.174Z,76.48
2023-03-10T07:15:00.165Z,74.94
2023-03-10T07:17:48.652Z,76.32
2023-03-10T07:20:38.238Z,74.98
2023-03-10T07:23:27.329Z,77.31
2023-03-10T07:26:18.559Z,81.38
2023-03-10T07:29:07.057Z,85.91
2023-03-10T07:31:57.109Z,93.04
2023-03-10T07:34:45.648Z,100.00
2023-03-10T07:37:34.087Z,100.00
2023-03-10T07:40:24.961Z,100.00
2023-03-10T07:43:13.562Z,100.00
2023-03-10T07:46:06.319Z,100.00
2023-03-10T07:48:56.327Z,100.00
2023-03-10T07:51:44.865Z,100.00
2023-03-10T07:54:33.334Z,100.00
2023-03-10T07:57:21.960Z,100.00
2023-03-10T08:00:11.669Z,100.00
2023-03-10T08:03:00.210Z,100.00
2023-03-10T08:05:51.316Z,100.00
2023-03-10T08:08:39.791Z,100.00
2023-03-10T08:11:28.372Z,100.00
2023-03-10T08:14:20.901Z,100.00
2023-03-10T08:17:09.564Z,100.00
2023-03-10T08:19:58.556Z,100.00
2023-03-10T08:22:48.454Z,100.00
2023-03-10T08:25:36.949Z,100.00
2023-03-10T08:28:25.521Z,100.00
2023-03-10T08:31:16.159Z,100.00
2023-03-10T08:34:04.686Z,100.00
2023-03-10T08:36:53.126Z,100.00
2023-03-10T08:39:43.078Z,100.00
2023-03-10T08:42:31.589Z,100.00
2023-03-10T08:45:20.372Z,100.00
2023-03-10T08:48:08.882Z,100.00
2023-03-10T08:50:57.819Z,100.00
2023-03-10T08:53:47.669Z,100.00
2023-03-10T08:56:37.587Z,100.00
2023-03-10T08:59:26.291Z,100.00
2023-03-10T09:02:15.325Z,100.00
2023-03-10T09:05:04.192Z,100.00
2023-03-10T09:07:52.682Z,100.00
2023-03-10T09:10:43.448Z,100.00
2023-03-10T09:13:33.399Z,100.00
2023-03-10T09:16:22.178Z,100.00
2023-03-10T09:19:10.686Z,100.00
2023-03-10T09:21:59.409Z,100.00
2023-03-10T09:24:47.874Z,100.00
2023-03-10T09:27:36.451Z,100.00
2023-03-10T09:30:26.612Z,100.00
2023-03-10T09:33:17.164Z,100.00
2023-03-10T09:36:07.491Z,100.00
2023-03-10T09:38:56.700Z,100.00
2023-03-10T09:42:18.894Z,100.00
2023-03-10T09:45:26.583Z,100.00
2023-03-10T09:48:28.557Z,100.00
2023-03-10T09:51:18.409Z,100.00
2023-03-10T09:54:26.620Z,100.00
2023-03-10T09:57:17.485Z,100.00
2023-03-10T10:00:11.421Z,100.00
2023-03-10T10:03:09.101Z,100.00
2023-03-10T10:05:58.400Z,100.00
2023-03-10T10:09:01.805Z,100.00
2023-03-10T10:11:52.698Z,100.00
2023-03-10T10:14:48.128Z,100.00
2023-03-10T10:18:00.569Z,100.00
2023-03-10T10:21:01.127Z,100.00
2023-03-10T10:23:51.415Z,100.00
2023-03-10T10:26:39.895Z,100.00
2023-03-10T10:29:36.444Z,100.00
2023-03-10T10:32:25.516Z,100.00
2023-03-10T10:35:17.123Z,100.00
2023-03-10T10:38:11.802Z,100.00
2023-03-10T10:41:07.284Z,100.00
2023-03-10T10:43:59.207Z,100.00
2023-03-10T10:46:52.868Z,100.00
2023-03-10T10:49:41.533Z,100.00
2023-03-10T10:52:30.061Z,100.00
2023-03-10T10:55:37.974Z,100.00
2023-03-10T10:58:29.900Z,100.00
2023-03-10T11:01:18.551Z,100.00
2023-03-10T11:04:08.787Z,100.00
2023-03-10T11:07:12.582Z,100.00
2023-03-10T11:10:01.075Z,100.00
2023-03-10T11:13:01.375Z,100.00
2023-03-10T11:15:54.561Z,100.00
2023-03-10T11:18:47.279Z,100.00
2023-03-10T11:21:37.813Z,100.00
2023-03-10T11:24:29.692Z,100.00
2023-03-10T11:27:20.412Z,100.00
2023-03-10T11:30:14.914Z,100.00
2023-03-10T11:33:14.064Z,100.00
2023-03-10T11:36:15.312Z,100.00
2023-03-10T11:39:09.832Z,100.00
2023-03-10T11:42:03.693Z,100.00
2023-03-10T11:45:00.261Z,100.00
2023-03-10T11:47:56.362Z,100.00
2023-03-10T11:50:50.835Z,100.00
2023-03-10T11:53:41.403Z,100.00
2023-03-10T11:56:30.092Z,100.00
2023-03-10T11:59:21.323Z,100.00
2023-03-10T12:02:13.289Z,100.00
2023-03-10T12:05:06.778Z,100.00
2023-03-10T12:07:57.262Z,100.00
2023-03-10T12:10:45.936Z,100.00
2023-03-10T12:13:39.425Z,100.00
2023-03-10T12:16:29.343Z,100.00
2023-03-10T12:19:17.840Z,100.00
2023-03-10T12:22:37.747Z,100.00
2023-03-10T12:25:44.917Z,100.00
2023-03-10T12:28:34.643Z,100.00
2023-03-10T12:31:47.309Z,100.00
2023-03-10T12:34:35.828Z,100.00
2023-03-10T12:37:24.394Z,100.00
2023-03-10T12:40:42.608Z,100.00
2023-03-10T12:43:57.384Z,100.00
2023-03-10T12:46:48.788Z,100.00
2023-03-10T12:49:42.819Z,100.00
2023-03-10T12:52:48.808Z,100.00
2023-03-10T12:55:37.569Z,100.00
2023-03-10T12:58:26.821Z,100.00
2023-03-10T13:01:21.182Z,100.00
2023-03-10T13:04:10.128Z,100.00
2023-03-10T13:07:03.502Z,100.00
2023-03-10T13:09:52.246Z,100.00
2023-03-10T13:12:48.049Z,100.00
2023-03-10T13:15:36.783Z,100.00
2023-03-10T13:18:26.729Z,100.00
2023-03-10T13:21:24.926Z,100.00
2023-03-10T13:24:24.312Z,100.00
2023-03-10T13:27:14.635Z,100.00
2023-03-10T13:30:05.654Z,100.00
2023-03-10T13:32:55.804Z,100.00
2023-03-10T13:35:47.205Z,100.00
2023-03-10T13:38:35.704Z,100.00
2023-03-10T13:41:24.394Z,100.00
2023-03-10T13:44:18.938Z,100.00
2023-03-10T13:47:16.012Z,100.00
2023-03-10T13:50:04.995Z,100.00
2023-03-10T13:52:57.341Z,100.00
2023-03-10T13:55:45.915Z,100.00
2023-03-10T13:58:34.386Z,100.00
2023-03-10T14:01:25.233Z,100.00
2023-03-10T14:04:17.887Z,100.00
2023-03-10T14:07:10.878Z,100.00
2023-03-10T14:10:16.075Z,100.00
2023-03-10T14:13:04.568Z,100.00
2023-03-10T14:15:56.498Z,100.00
2023-03-10T14:18:45.013Z,100.00
2023-03-10T14:21:34.473Z,100.00
2023-03-10T14:24:22.997Z,100.00
2023-03-10T14:27:13.027Z,100.00
2023-03-10T14:30:03.811Z,100.00
2023-03-10T14:32:53.185Z,100.00
2023-03-10T14:35:42.270Z,100.00
2023-03-10T14:38:30.869Z,100.00
2023-03-10T14:41:20.280Z,100.00
2023-03-10T14:44:10.894Z,100.00
2023-03-10T14:47:00.234Z,100.00
2023-03-10T14:49:49.125Z,100.00
2023-03-10T14:52:37.720Z,100.00
2023-03-10T14:55:26.293Z,100.00
2023-03-10T14:58:17.903Z,100.00
2023-03-10T15:01:07.991Z,100.00
2023-03-10T15:03:56.522Z,100.00
2023-03-10T15:06:45.708Z,100.00
2023-03-10T15:09:35.316Z,100.00
2023-03-10T15:12:23.838Z,100.00
2023-03-10T15:15:17.082Z,100.00
2023-03-10T15:18:07.474Z,100.00
2023-03-10T15:20:59.004Z,100.00
2023-03-10T15:23:47.604Z,100.00
2023-03-10T15:26:36.106Z,100.00
2023-03-10T15:29:24.580Z,100.00
2023-03-10T15:32:13.164Z,100.00
2023-03-10T15:35:04.271Z,100.00
2023-03-10T15:37:53.610Z,99.19
2023-03-10T15:40:42.466Z,99.87
2023-03-10T15:43:31.025Z,97.80
2023-03-10T15:46:20.456Z,100.00
2023-03-10T15:49:09.137Z,99.36
2023-03-10T15:51:59.368Z,97.39
2023-03-10T15:54:47.926Z,96.86
2023-03-10T15:57:36.479Z,96.15
2023-03-10T16:00:26.489Z,98.65
2023-03-10T16:03:18.231Z,96.90
2023-03-10T16:06:09.516Z,95.81
2023-03-10T16:08:59.333Z,93.39
2023-03-10T16:11:48.985Z,90.89
2023-03-10T16:14:37.507Z,88.67
2023-03-10T16:17:26.245Z,87.12
2023-03-10T16:20:16.925Z,87.19
2023-03-10T16:23:05.535Z,85.65
2023-03-10T16:26:10.562Z,85.70
2023-03-10T16:28:59.087Z,85.10
2023-03-10T16:31:47.683Z,84.22
2023-03-10T16:34:36.689Z,84.47
2023-03-10T16:37:26.807Z,85.22
2023-03-10T16:40:15.848Z,86.67
2023-03-10T16:43:05.749Z,85.85
2023-03-10T16:45:54.330Z,85.46
2023-03-10T16:48:44.131Z,83.84
2023-03-10T16:51:35.404Z,83.51
2023-03-10T16:54:24.112Z,83.97
2023-03-10T16:57:12.615Z,81.57
2023-03-10T17:00:02.581Z,81.62
2023-03-10T17:02:51.322Z,81.38
2023-03-10T17:05:40.223Z,83.57
2023-03-10T17:08:29.890Z,87.25
2023-03-10T17:11:20.395Z,89.02
2023-03-10T17:14:11.064Z,88.50
2023-03-10T17:17:05.863Z,86.85
2023-03-10T17:19:55.853Z,86.21
2023-03-10T17:22:44.295Z,87.01
2023-03-10T17:28:26.197Z,99.92
2023-03-10T17:31:16.065Z,100.00
2023-03-10T17:34:07.623Z,100.00
2023-03-10T17:36:56.218Z,100.00
2023-03-10T17:39:45.152Z,100.00
2023-03-10T17:42:33.755Z,100.00
2023-03-10T17:45:22.272Z,100.00
2023-03-10T17:48:10.887Z,100.00
2023-03-10T17:51:00.873Z,99.20
2023-03-10T17:53:49.847Z,98.54
2023-03-10T17:56:38.723Z,98.10
2023-03-10T17:59:27.300Z,95.02
2023-03-10T18:02:15.996Z,94.56
2023-03-10T18:05:05.090Z,93.08
2023-03-10T18:07:55.467Z,93.97
2023-03-10T18:10:43.901Z,94.01
2023-03-10T18:13:32.586Z,94.86
2023-03-10T18:16:23.488Z,92.80
2023-03-10T18:19:12.097Z,92.51
2023-03-10T18:22:00.840Z,90.87
2023-03-10T18:24:50.702Z,90.48
2023-03-10T18:27:39.241Z,90.01
2023-03-10T18:30:27.802Z,90.53
2023-03-10T18:33:16.922Z,92.00
2023-03-10T18:36:07.243Z,92.96
2023-03-10T18:38:56.022Z,95.57
2023-03-10T18:41:45.909Z,97.45
2023-03-10T18:44:34.393Z,100.00
2023-03-10T18:47:22.934Z,100.00
2023-03-10T18:50:14.116Z,100.00
2023-03-10T18:53:02.601Z,100.00
2023-03-10T18:55:51.150Z,100.00
2023-03-10T18:58:41.122Z,100.00
2023-03-10T19:01:29.719Z,100.00
2023-03-10T19:04:18.573Z,100.00
2023-03-10T19:07:07.434Z,100.00
2023-03-10T19:09:56.059Z,100.00
2023-03-10T19:12:44.575Z,100.00
2023-03-10T19:15:34.677Z,100.00
2023-03-10T19:18:23.824Z,100.00
2023-03-10T19:21:13.011Z,100.00
2023-03-10T19:24:01.550Z,100.00
2023-03-10T19:26:50.445Z,99.21
2023-03-10T19:29:39.094Z,96.89
2023-03-10T19:32:29.545Z,98.10
2023-03-10T19:35:19.102Z,97.32
2023-03-10T19:38:07.828Z,100.00
2023-03-10T19:40:56.335Z,100.00
2023-03-10T19:43:45.272Z,100.00
2023-03-10T19:46:33.951Z,100.00
2023-03-10T19:49:24.636Z,100.00
2023-03-10T19:52:13.194Z,100.00
2023-03-10T19:55:01.691Z,99.04
2023-03-10T19:57:52.017Z,92.39
2023-03-10T20:00:40.540Z,93.49
2023-03-10T20:03:31.034Z,94.67
2023-03-10T20:06:21.474Z,92.52
2023-03-10T20:09:10.679Z,89.83
2023-03-10T20:11:59.188Z,89.86
2023-03-10T20:14:47.676Z,87.10
2023-03-10T20:17:36.491Z,82.97
2023-03-10T20:20:25.356Z,83.41
2023-03-10T20:23:15.343Z,83.13
2023-03-10T20:26:05.160Z,80.78
2023-03-10T20:28:53.831Z,81.86
2023-03-10T20:31:43.236Z,79.77
2023-03-10T20:34:32.881Z,77.69
2023-03-10T20:37:21.486Z,76.81
2023-03-10T20:40:13.836Z,75.79
2023-03-10T20:43:02.281Z,76.09
2023-03-10T20:45:55.171Z,71.87
2023-03-10T20:48:43.729Z,72.83
2023-03-10T20:51:32.292Z,72.43
2023-03-10T20:54:21.366Z,72.21
2023-03-10T20:57:11.294Z,70.13
2023-03-10T21:00:00.315Z,71.42
2023-03-10T21:02:51.230Z,71.34
2023-03-10T21:05:39.824Z,71.24
2023-03-10T21:08:28.335Z,72.08
2023-03-10T21:11:26.126Z,74.00
2023-03-10T21:14:16.897Z,75.84
2023-03-10T21:17:05.797Z,76.48
2023-03-10T21:19:54.729Z,77.79
2023-03-10T21:22:43.397Z,76.27
2023-03-10T21:25:32.954Z,77.22
2023-03-10T21:28:21.526Z,75.88
2023-03-10T21:31:13.871Z,73.29
2023-03-10T21:34:03.066Z,72.66
2023-03-10T21:36:51.529Z,72.62
2023-03-10T21:39:40.198Z,73.53
2023-03-10T21:42:28.725Z,72.92
2023-03-10T21:45:19.530Z,73.18
2023-03-10T21:48:11.527Z,74.20
2023-03-10T21:51:00.255Z,75.23
2023-03-10T21:53:48.839Z,75.29
2023-03-10T21:56:37.372Z,75.18
2023-03-10T21:59:25.944Z,74.80
2023-03-10T22:02:24.197Z,74.23
2023-03-10T22:05:16.018Z,74.66
2023-03-10T22:08:04.569Z,75.13
2023-03-10T22:10:53.084Z,75.02
2023-03-10T22:13:41.977Z,76.28
2023-03-10T22:16:30.436Z,76.45
2023-03-10T22:19:19.706Z,76.65
2023-03-10T22:22:09.579Z,76.82
2023-03-10T22:24:58.020Z,76.54
2023-03-10T22:27:50.072Z,76.48
2023-03-10T22:30:39.450Z,76.00
2023-03-10T22:33:28.144Z,76.10
2023-03-10T22:36:18.435Z,77.20
2023-03-10T22:39:08.325Z,77.51
2023-03-10T22:41:56.784Z,79.02
2023-03-10T22:44:45.435Z,78.44
2023-03-10T22:47:33.876Z,77.85
2023-03-10T22:50:24.911Z,78.91
2023-03-10T22:53:14.910Z,78.34
2023-03-10T22:56:05.447Z,79.00
2023-03-10T22:58:53.924Z,78.49
2023-03-10T23:01:42.510Z,77.84
2023-03-10T23:04:31.007Z,77.75
2023-03-10T23:07:19.484Z,78.10
2023-03-10T23:10:10.290Z,77.78
2023-03-10T23:13:00.829Z,76.23
2023-03-10T23:15:49.431Z,76.68
2023-03-10T23:18:38.115Z,76.53
2023-03-10T23:21:26.660Z,75.97
2023-03-10T23:24:15.132Z,76.12
2023-03-10T23:27:03.622Z,76.82
2023-03-10T23:29:53.433Z,76.48
2023-03-10T23:32:42.062Z,77.91
2023-03-10T23:35:32.575Z,77.73
2023-03-10T23:38:22.024Z,77.47
2023-03-10T23:41:10.457Z,78.04
2023-03-10T23:43:58.923Z,78.00
2023-03-10T23:46:51.671Z,78.22
2023-03-10T23:49:40.173Z,77.94
2023-03-10T23:52:28.963Z,78.04
2023-03-10T23:55:19.794Z,79.26
2023-03-10T23:58:08.808Z,79.64
